Tawakoni's Hourly Summary for Wednesday, May 16, 2018
Hour Temp
(f)
RH
(%)
Solar Rad.
(MJ/m2)
Rainfall
(in)
Wind
(mph)
5/16/2018 12:00 AM 65 85 0 0 1.07
5/16/2018 1:00 AM 65 88 0 0 1.89
5/16/2018 2:00 AM 64 89 0 0 1.49
5/16/2018 3:00 AM 64 90 0 0 1.44
5/16/2018 4:00 AM 64 92 0 0 2.13
5/16/2018 5:00 AM 63 93 0 0 0.45
5/16/2018 6:00 AM 63 95 0 0 2.72
5/16/2018 7:00 AM 64 86 0.06 0 4.38
5/16/2018 8:00 AM 66 84 0.26 0 2.16
5/16/2018 9:00 AM 69 64 0.77 0 0.84
5/16/2018 10:00 AM 76 63 1.87 0 2.44
5/16/2018 11:00 AM 79 59 2.37 0 4.34
5/16/2018 12:00 PM 81 53 2.31 0 2.62
5/16/2018 1:00 PM 82 53 2.6 0 2.83
5/16/2018 2:00 PM 83 50 3.11 0 3.71
5/16/2018 3:00 PM 85 46 3 0 3.12
5/16/2018 4:00 PM 87 44 2.8 0 2.99
5/16/2018 5:00 PM 87 41 2.21 0 3.22
5/16/2018 6:00 PM 87 39 1.64 0 2.32
5/16/2018 7:00 PM 86 40 0.99 0 3.85
5/16/2018 8:00 PM 83 50 0.37 0 2.04
5/16/2018 9:00 PM 77 62 0.01 0 0.83
5/16/2018 10:00 PM 74 69 0 0 2.15
5/16/2018 11:00 PM 72 74 0 0 1.57
Data Summary 74 67 24.37 0.00 2.36